sensor_id;sensor_type;location;lat;lon;timestamp;pressure;altitude;pressure_sealevel;temperature;humidity
31346;BME280;21711;49.708;18.568;2023-12-20T00:02:22;96916.16;;;8.91;38.72
31346;BME280;21711;49.708;18.568;2023-12-20T00:04:49;96909.81;;;8.92;41.28
31346;BME280;21711;49.708;18.568;2023-12-20T00:07:17;96914.59;;;8.90;39.52
31346;BME280;21711;49.708;18.568;2023-12-20T00:09:44;96913.75;;;8.94;38.37
31346;BME280;21711;49.708;18.568;2023-12-20T00:12:12;96911.41;;;8.98;40.32
31346;BME280;21711;49.708;18.568;2023-12-20T00:14:39;96907.19;;;8.92;39.71
31346;BME280;21711;49.708;18.568;2023-12-20T00:17:06;96893.25;;;8.81;41.06
31346;BME280;21711;49.708;18.568;2023-12-20T00:19:34;96896.97;;;8.75;39.86
31346;BME280;21711;49.708;18.568;2023-12-20T00:22:02;96897.47;;;8.82;40.12
31346;BME280;21711;49.708;18.568;2023-12-20T00:24:29;96894.84;;;8.72;38.79
31346;BME280;21711;49.708;18.568;2023-12-20T00:26:56;96897.00;;;8.70;40.38
31346;BME280;21711;49.708;18.568;2023-12-20T00:29:24;96904.06;;;8.74;39.51
31346;BME280;21711;49.708;18.568;2023-12-20T00:31:51;96894.31;;;8.80;38.19
31346;BME280;21711;49.708;18.568;2023-12-20T00:34:18;96885.06;;;8.82;39.57
31346;BME280;21711;49.708;18.568;2023-12-20T00:36:46;96881.94;;;8.75;38.39
31346;BME280;21711;49.708;18.568;2023-12-20T00:39:14;96885.63;;;8.79;39.22
31346;BME280;21711;49.708;18.568;2023-12-20T00:41:41;96880.63;;;8.78;39.79
31346;BME280;21711;49.708;18.568;2023-12-20T00:44:09;96879.59;;;8.68;39.71
31346;BME280;21711;49.708;18.568;2023-12-20T00:46:36;96871.97;;;8.62;40.22
31346;BME280;21711;49.708;18.568;2023-12-20T00:49:03;96865.41;;;8.59;39.39
31346;BME280;21711;49.708;18.568;2023-12-20T00:51:31;96875.97;;;8.54;39.96
31346;BME280;21711;49.708;18.568;2023-12-20T00:53:58;96863.81;;;8.53;39.63
31346;BME280;21711;49.708;18.568;2023-12-20T00:56:25;96864.09;;;8.57;38.82
31346;BME280;21711;49.708;18.568;2023-12-20T00:58:53;96846.91;;;8.70;39.41
31346;BME280;21711;49.708;18.568;2023-12-20T01:01:20;96844.56;;;8.58;40.41
31346;BME280;21711;49.708;18.568;2023-12-20T01:03:48;96832.19;;;8.53;38.91
31346;BME280;21711;49.708;18.568;2023-12-20T01:06:18;96840.63;;;8.50;41.45
31346;BME280;21711;49.708;18.568;2023-12-20T01:08:46;96830.88;;;8.45;41.42
31346;BME280;21711;49.708;18.568;2023-12-20T01:11:14;96832.47;;;8.41;41.75
31346;BME280;21711;49.708;18.568;2023-12-20T01:13:41;96825.66;;;8.29;40.36
31346;BME280;21711;49.708;18.568;2023-12-20T01:16:12;96819.59;;;8.39;40.37
31346;BME280;21711;49.708;18.568;2023-12-20T01:18:39;96814.31;;;8.29;40.81
31346;BME280;21711;49.708;18.568;2023-12-20T01:21:06;96821.97;;;8.25;41.83
31346;BME280;21711;49.708;18.568;2023-12-20T01:23:34;96813.31;;;8.25;41.77
31346;BME280;21711;49.708;18.568;2023-12-20T01:26:01;96811.50;;;8.10;41.26
31346;BME280;21711;49.708;18.568;2023-12-20T01:28:29;96821.22;;;8.09;41.81
31346;BME280;21711;49.708;18.568;2023-12-20T01:30:58;96822.56;;;8.01;44.74
31346;BME280;21711;49.708;18.568;2023-12-20T01:33:25;96815.47;;;7.76;45.71
31346;BME280;21711;49.708;18.568;2023-12-20T01:35:52;96808.38;;;7.19;52.06
31346;BME280;21711;49.708;18.568;2023-12-20T01:38:20;96812.50;;;6.84;56.44
31346;BME280;21711;49.708;18.568;2023-12-20T01:40:47;96808.91;;;6.31;62.56
31346;BME280;21711;49.708;18.568;2023-12-20T01:43:14;96804.06;;;6.08;63.45
31346;BME280;21711;49.708;18.568;2023-12-20T01:45:42;96790.50;;;5.83;67.18
31346;BME280;21711;49.708;18.568;2023-12-20T01:48:11;96794.34;;;5.65;70.38
31346;BME280;21711;49.708;18.568;2023-12-20T01:50:38;96779.06;;;5.24;74.04
31346;BME280;21711;49.708;18.568;2023-12-20T01:53:08;96776.09;;;5.15;74.21
31346;BME280;21711;49.708;18.568;2023-12-20T01:55:39;96772.88;;;5.03;72.76
31346;BME280;21711;49.708;18.568;2023-12-20T01:58:11;96772.81;;;4.97;74.77
31346;BME280;21711;49.708;18.568;2023-12-20T02:00:39;96774.25;;;4.83;74.84
31346;BME280;21711;49.708;18.568;2023-12-20T02:03:07;96756.09;;;4.76;73.46
31346;BME280;21711;49.708;18.568;2023-12-20T02:05:36;96744.63;;;4.82;74.31
31346;BME280;21711;49.708;18.568;2023-12-20T02:08:04;96747.88;;;4.67;75.27
31346;BME280;21711;49.708;18.568;2023-12-20T02:10:33;96747.34;;;4.65;75.38
31346;BME280;21711;49.708;18.568;2023-12-20T02:13:00;96741.81;;;4.62;76.51
31346;BME280;21711;49.708;18.568;2023-12-20T02:15:28;96752.63;;;4.70;77.76
31346;BME280;21711;49.708;18.568;2023-12-20T02:17:55;96738.19;;;4.40;80.03
31346;BME280;21711;49.708;18.568;2023-12-20T02:20:22;96736.47;;;4.29;80.56
31346;BME280;21711;49.708;18.568;2023-12-20T02:22:50;96736.00;;;4.10;80.76
31346;BME280;21711;49.708;18.568;2023-12-20T02:25:17;96728.97;;;3.93;81.88
31346;BME280;21711;49.708;18.568;2023-12-20T02:27:44;96734.84;;;4.00;82.04
31346;BME280;21711;49.708;18.568;2023-12-20T02:30:12;96736.25;;;4.08;68.73
31346;BME280;21711;49.708;18.568;2023-12-20T02:32:40;96737.69;;;4.43;75.28
31346;BME280;21711;49.708;18.568;2023-12-20T02:35:07;96741.41;;;4.75;60.58
31346;BME280;21711;49.708;18.568;2023-12-20T02:37:35;96731.91;;;5.29;56.60
31346;BME280;21711;49.708;18.568;2023-12-20T02:40:02;96720.44;;;5.84;55.00
31346;BME280;21711;49.708;18.568;2023-12-20T02:42:31;96721.75;;;6.35;50.90
31346;BME280;21711;49.708;18.568;2023-12-20T02:44:59;96717.34;;;6.66;47.55
31346;BME280;21711;49.708;18.568;2023-12-20T02:47:26;96711.31;;;6.81;47.78
31346;BME280;21711;49.708;18.568;2023-12-20T02:49:54;96716.88;;;6.85;48.65
31346;BME280;21711;49.708;18.568;2023-12-20T02:52:23;96721.31;;;7.00;48.74
31346;BME280;21711;49.708;18.568;2023-12-20T02:54:51;96727.63;;;6.99;48.40
31346;BME280;21711;49.708;18.568;2023-12-20T02:57:19;96718.44;;;6.96;48.55
31346;BME280;21711;49.708;18.568;2023-12-20T02:59:46;96717.41;;;7.13;46.91
31346;BME280;21711;49.708;18.568;2023-12-20T03:02:14;96708.97;;;7.42;48.37
31346;BME280;21711;49.708;18.568;2023-12-20T03:04:41;96710.00;;;7.46;47.90
31346;BME280;21711;49.708;18.568;2023-12-20T03:07:08;96701.31;;;7.46;46.82
31346;BME280;21711;49.708;18.568;2023-12-20T03:09:36;96698.91;;;7.70;46.12
31346;BME280;21711;49.708;18.568;2023-12-20T03:12:23;96701.50;;;7.81;46.36
31346;BME280;21711;49.708;18.568;2023-12-20T03:14:51;96689.88;;;7.92;45.31
31346;BME280;21711;49.708;18.568;2023-12-20T03:17:18;96689.94;;;7.76;46.43
31346;BME280;21711;49.708;18.568;2023-12-20T03:19:46;96689.38;;;7.90;46.17
31346;BME280;21711;49.708;18.568;2023-12-20T03:22:14;96687.22;;;7.97;46.52
31346;BME280;21711;49.708;18.568;2023-12-20T03:24:41;96690.69;;;7.93;46.60
31346;BME280;21711;49.708;18.568;2023-12-20T03:27:09;96684.06;;;8.00;46.14
31346;BME280;21711;49.708;18.568;2023-12-20T03:29:36;96698.50;;;8.13;47.65
31346;BME280;21711;49.708;18.568;2023-12-20T03:32:04;96698.84;;;7.91;47.09
31346;BME280;21711;49.708;18.568;2023-12-20T03:34:31;96697.47;;;8.04;46.62
31346;BME280;21711;49.708;18.568;2023-12-20T03:36:59;96700.88;;;8.10;46.76
31346;BME280;21711;49.708;18.568;2023-12-20T03:39:27;96691.16;;;8.10;48.04
31346;BME280;21711;49.708;18.568;2023-12-20T03:41:54;96697.16;;;8.16;48.75
31346;BME280;21711;49.708;18.568;2023-12-20T03:44:22;96696.63;;;8.19;49.01
31346;BME280;21711;49.708;18.568;2023-12-20T03:46:49;96705.34;;;8.09;51.05
31346;BME280;21711;49.708;18.568;2023-12-20T03:49:17;96703.88;;;7.82;53.31
31346;BME280;21711;49.708;18.568;2023-12-20T03:51:44;96704.91;;;7.86;56.30
31346;BME280;21711;49.708;18.568;2023-12-20T03:54:12;96695.50;;;7.65;61.73
31346;BME280;21711;49.708;18.568;2023-12-20T03:56:39;96705.78;;;7.61;65.21
31346;BME280;21711;49.708;18.568;2023-12-20T03:59:07;96715.00;;;7.32;72.04
31346;BME280;21711;49.708;18.568;2023-12-20T04:01:34;96725.00;;;7.09;74.11
31346;BME280;21711;49.708;18.568;2023-12-20T04:04:02;96725.56;;;7.12;75.85
31346;BME280;21711;49.708;18.568;2023-12-20T04:06:30;96730.78;;;6.91;80.53
31346;BME280;21711;49.708;18.568;2023-12-20T04:08:57;96720.00;;;6.82;84.08
31346;BME280;21711;49.708;18.568;2023-12-20T04:11:25;96727.63;;;6.78;86.72
31346;BME280;21711;49.708;18.568;2023-12-20T04:13:52;96714.19;;;6.59;89.70
31346;BME280;21711;49.708;18.568;2023-12-20T04:16:19;96710.16;;;6.25;94.18
31346;BME280;21711;49.708;18.568;2023-12-20T04:18:47;96709.28;;;6.04;98.05
31346;BME280;21711;49.708;18.568;2023-12-20T04:21:14;96700.38;;;6.05;98.06
31346;BME280;21711;49.708;18.568;2023-12-20T04:23:42;96705.88;;;6.03;98.25
31346;BME280;21711;49.708;18.568;2023-12-20T04:26:10;96700.81;;;5.97;100.00
31346;BME280;21711;49.708;18.568;2023-12-20T04:28:37;96708.19;;;5.95;100.00
31346;BME280;21711;49.708;18.568;2023-12-20T04:31:04;96698.44;;;5.90;100.00
31346;BME280;21711;49.708;18.568;2023-12-20T04:33:32;96697.66;;;5.89;100.00
31346;BME280;21711;49.708;18.568;2023-12-20T04:35:59;96687.28;;;5.67;100.00
31346;BME280;21711;49.708;18.568;2023-12-20T04:38:27;96681.75;;;5.58;100.00
31346;BME280;21711;49.708;18.568;2023-12-20T04:40:54;96676.97;;;5.50;100.00
31346;BME280;21711;49.708;18.568;2023-12-20T04:43:22;96651.63;;;4.85;100.00
31346;BME280;21711;49.708;18.568;2023-12-20T04:45:49;96666.59;;;4.57;100.00
31346;BME280;21711;49.708;18.568;2023-12-20T04:48:17;96649.25;;;4.51;100.00
31346;BME280;21711;49.708;18.568;2023-12-20T04:50:44;96642.69;;;4.48;100.00
31346;BME280;21711;49.708;18.568;2023-12-20T04:53:12;96655.44;;;4.67;100.00
31346;BME280;21711;49.708;18.568;2023-12-20T04:55:39;96654.66;;;4.71;100.00
31346;BME280;21711;49.708;18.568;2023-12-20T04:58:07;96659.03;;;4.60;100.00
31346;BME280;21711;49.708;18.568;2023-12-20T05:00:34;96667.44;;;4.63;100.00
31346;BME280;21711;49.708;18.568;2023-12-20T05:03:01;96665.03;;;4.56;100.00
31346;BME280;21711;49.708;18.568;2023-12-20T05:05:28;96665.41;;;4.42;100.00
31346;BME280;21711;49.708;18.568;2023-12-20T05:07:56;96667.88;;;4.54;100.00
31346;BME280;21711;49.708;18.568;2023-12-20T05:10:23;96666.50;;;4.46;100.00
31346;BME280;21711;49.708;18.568;2023-12-20T05:12:51;96665.91;;;4.39;100.00
31346;BME280;21711;49.708;18.568;2023-12-20T05:15:18;96653.66;;;4.45;100.00
31346;BME280;21711;49.708;18.568;2023-12-20T05:17:46;96655.13;;;4.36;100.00
31346;BME280;21711;49.708;18.568;2023-12-20T05:20:14;96651.75;;;4.35;100.00
31346;BME280;21711;49.708;18.568;2023-12-20T05:22:42;96626.09;;;4.37;100.00
31346;BME280;21711;49.708;18.568;2023-12-20T05:25:09;96628.75;;;4.15;100.00
31346;BME280;21711;49.708;18.568;2023-12-20T05:27:36;96633.56;;;4.23;100.00
31346;BME280;21711;49.708;18.568;2023-12-20T05:30:04;96626.28;;;4.30;100.00
31346;BME280;21711;49.708;18.568;2023-12-20T05:32:32;96624.22;;;4.32;100.00
31346;BME280;21711;49.708;18.568;2023-12-20T05:34:59;96625.06;;;4.38;100.00
31346;BME280;21711;49.708;18.568;2023-12-20T05:37:27;96626.09;;;4.37;100.00
31346;BME280;21711;49.708;18.568;2023-12-20T05:39:54;96628.22;;;4.40;100.00
31346;BME280;21711;49.708;18.568;2023-12-20T05:42:22;96629.00;;;4.41;100.00
31346;BME280;21711;49.708;18.568;2023-12-20T05:44:49;96632.81;;;4.28;100.00
31346;BME280;21711;49.708;18.568;2023-12-20T05:47:21;96624.56;;;4.41;100.00
31346;BME280;21711;49.708;18.568;2023-12-20T05:49:48;96634.31;;;4.51;100.00
31346;BME280;21711;49.708;18.568;2023-12-20T05:52:17;96632.34;;;4.64;100.00
31346;BME280;21711;49.708;18.568;2023-12-20T05:54:45;96646.50;;;4.63;100.00
31346;BME280;21711;49.708;18.568;2023-12-20T05:57:12;96656.50;;;4.43;100.00
31346;BME280;21711;49.708;18.568;2023-12-20T05:59:40;96655.50;;;4.44;100.00
31346;BME280;21711;49.708;18.568;2023-12-20T06:02:07;96665.28;;;4.27;100.00
31346;BME280;21711;49.708;18.568;2023-12-20T06:04:34;96667.59;;;4.23;100.00
31346;BME280;21711;49.708;18.568;2023-12-20T06:07:02;96663.06;;;4.18;100.00
31346;BME280;21711;49.708;18.568;2023-12-20T06:09:30;96678.66;;;4.08;100.00
31346;BME280;21711;49.708;18.568;2023-12-20T06:11:58;96678.91;;;4.06;100.00
31346;BME280;21711;49.708;18.568;2023-12-20T06:14:25;96675.63;;;3.94;100.00
31346;BME280;21711;49.708;18.568;2023-12-20T06:16:53;96674.34;;;3.74;100.00
31346;BME280;21711;49.708;18.568;2023-12-20T06:19:20;96672.22;;;3.93;100.00
31346;BME280;21711;49.708;18.568;2023-12-20T06:21:48;96695.66;;;4.05;100.00
31346;BME280;21711;49.708;18.568;2023-12-20T06:24:15;96686.50;;;3.63;100.00
31346;BME280;21711;49.708;18.568;2023-12-20T06:26:43;96694.91;;;3.88;100.00
31346;BME280;21711;49.708;18.568;2023-12-20T06:29:11;96701.25;;;3.92;100.00
31346;BME280;21711;49.708;18.568;2023-12-20T06:31:39;96705.56;;;3.81;100.00
31346;BME280;21711;49.708;18.568;2023-12-20T06:34:06;96703.78;;;3.64;100.00
31346;BME280;21711;49.708;18.568;2023-12-20T06:36:34;96703.63;;;3.71;100.00
31346;BME280;21711;49.708;18.568;2023-12-20T06:39:01;96704.56;;;3.87;100.00
31346;BME280;21711;49.708;18.568;2023-12-20T06:41:28;96702.53;;;3.89;100.00
31346;BME280;21711;49.708;18.568;2023-12-20T06:43:56;96701.66;;;4.06;100.00
31346;BME280;21711;49.708;18.568;2023-12-20T06:46:23;96705.31;;;4.05;100.00
31346;BME280;21711;49.708;18.568;2023-12-20T06:48:51;96715.00;;;4.04;100.00
31346;BME280;21711;49.708;18.568;2023-12-20T06:51:18;96710.88;;;4.31;100.00
31346;BME280;21711;49.708;18.568;2023-12-20T06:53:47;96705.50;;;4.43;100.00
31346;BME280;21711;49.708;18.568;2023-12-20T06:56:14;96708.19;;;4.26;100.00
31346;BME280;21711;49.708;18.568;2023-12-20T06:58:46;96723.56;;;4.22;100.00
31346;BME280;21711;49.708;18.568;2023-12-20T07:01:15;96717.63;;;4.27;100.00
31346;BME280;21711;49.708;18.568;2023-12-20T07:03:43;96733.09;;;4.28;100.00
31346;BME280;21711;49.708;18.568;2023-12-20T07:06:11;96720.28;;;4.32;100.00
31346;BME280;21711;49.708;18.568;2023-12-20T07:08:39;96731.75;;;4.26;100.00
31346;BME280;21711;49.708;18.568;2023-12-20T07:11:07;96729.81;;;4.43;100.00
31346;BME280;21711;49.708;18.568;2023-12-20T07:13:34;96746.34;;;4.44;100.00
31346;BME280;21711;49.708;18.568;2023-12-20T07:16:02;96741.81;;;4.39;100.00
31346;BME280;21711;49.708;18.568;2023-12-20T07:18:30;96745.06;;;4.46;100.00
31346;BME280;21711;49.708;18.568;2023-12-20T07:20:57;96740.88;;;4.45;100.00
31346;BME280;21711;49.708;18.568;2023-12-20T07:23:24;96740.91;;;4.51;100.00
31346;BME280;21711;49.708;18.568;2023-12-20T07:25:53;96744.06;;;4.53;100.00
31346;BME280;21711;49.708;18.568;2023-12-20T07:28:21;96737.19;;;4.46;100.00
31346;BME280;21711;49.708;18.568;2023-12-20T07:30:48;96749.91;;;4.60;100.00
31346;BME280;21711;49.708;18.568;2023-12-20T07:33:15;96752.34;;;4.67;100.00
31346;BME280;21711;49.708;18.568;2023-12-20T07:35:43;96748.97;;;4.44;100.00
31346;BME280;21711;49.708;18.568;2023-12-20T07:38:12;96756.75;;;4.39;100.00
31346;BME280;21711;49.708;18.568;2023-12-20T07:40:40;96750.19;;;4.36;100.00
31346;BME280;21711;49.708;18.568;2023-12-20T07:43:08;96756.00;;;4.43;100.00
31346;BME280;21711;49.708;18.568;2023-12-20T07:45:35;96751.38;;;4.51;100.00
31346;BME280;21711;49.708;18.568;2023-12-20T07:48:03;96761.50;;;4.42;100.00
31346;BME280;21711;49.708;18.568;2023-12-20T07:50:32;96757.16;;;4.53;100.00
31346;BME280;21711;49.708;18.568;2023-12-20T07:53:00;96763.75;;;4.33;100.00
31346;BME280;21711;49.708;18.568;2023-12-20T07:55:28;96760.78;;;4.46;100.00
31346;BME280;21711;49.708;18.568;2023-12-20T07:57:59;96761.44;;;4.59;100.00
31346;BME280;21711;49.708;18.568;2023-12-20T08:00:27;96753.63;;;4.64;100.00
31346;BME280;21711;49.708;18.568;2023-12-20T08:02:54;96749.13;;;4.59;100.00
31346;BME280;21711;49.708;18.568;2023-12-20T08:05:22;96748.72;;;4.45;100.00
31346;BME280;21711;49.708;18.568;2023-12-20T08:07:49;96744.94;;;4.36;100.00
31346;BME280;21711;49.708;18.568;2023-12-20T08:10:17;96749.88;;;4.32;100.00
31346;BME280;21711;49.708;18.568;2023-12-20T08:12:46;96752.56;;;4.38;100.00
31346;BME280;21711;49.708;18.568;2023-12-20T08:15:14;96737.78;;;4.54;100.00
31346;BME280;21711;49.708;18.568;2023-12-20T08:17:41;96746.16;;;4.51;100.00
31346;BME280;21711;49.708;18.568;2023-12-20T08:20:10;96748.53;;;4.52;100.00
31346;BME280;21711;49.708;18.568;2023-12-20T08:22:39;96744.09;;;4.30;100.00
31346;BME280;21711;49.708;18.568;2023-12-20T08:25:07;96750.13;;;4.31;100.00
31346;BME280;21711;49.708;18.568;2023-12-20T08:27:40;96739.19;;;4.39;100.00
31346;BME280;21711;49.708;18.568;2023-12-20T08:30:09;96743.78;;;4.49;100.00
31346;BME280;21711;49.708;18.568;2023-12-20T08:32:37;96751.16;;;4.52;100.00
31346;BME280;21711;49.708;18.568;2023-12-20T08:35:05;96748.59;;;4.35;100.00
31346;BME280;21711;49.708;18.568;2023-12-20T08:37:32;96745.78;;;4.42;100.00
31346;BME280;21711;49.708;18.568;2023-12-20T08:40:00;96753.22;;;4.28;100.00
31346;BME280;21711;49.708;18.568;2023-12-20T08:42:27;96750.44;;;4.34;100.00
31346;BME280;21711;49.708;18.568;2023-12-20T08:44:58;96750.59;;;4.50;100.00
31346;BME280;21711;49.708;18.568;2023-12-20T08:47:26;96755.28;;;4.48;100.00
31346;BME280;21711;49.708;18.568;2023-12-20T08:49:53;96750.16;;;4.58;100.00
31346;BME280;21711;49.708;18.568;2023-12-20T08:52:25;96762.22;;;4.37;100.00
31346;BME280;21711;49.708;18.568;2023-12-20T08:54:56;96766.81;;;4.47;100.00
31346;BME280;21711;49.708;18.568;2023-12-20T08:57:24;96763.06;;;4.20;100.00
31346;BME280;21711;49.708;18.568;2023-12-20T08:59:52;96765.94;;;4.41;100.00
31346;BME280;21711;49.708;18.568;2023-12-20T09:02:19;96769.66;;;4.45;100.00
31346;BME280;21711;49.708;18.568;2023-12-20T09:04:47;96759.00;;;4.52;100.00
31346;BME280;21711;49.708;18.568;2023-12-20T09:07:25;96773.06;;;4.46;100.00
31346;BME280;21711;49.708;18.568;2023-12-20T09:09:53;96767.88;;;4.29;100.00
31346;BME280;21711;49.708;18.568;2023-12-20T09:12:21;96770.72;;;4.44;100.00
31346;BME280;21711;49.708;18.568;2023-12-20T09:14:50;96769.47;;;4.30;100.00
31346;BME280;21711;49.708;18.568;2023-12-20T09:17:18;96768.63;;;4.24;100.00
31346;BME280;21711;49.708;18.568;2023-12-20T09:19:46;96764.13;;;4.19;100.00
31346;BME280;21711;49.708;18.568;2023-12-20T09:22:14;96770.22;;;4.25;100.00
31346;BME280;21711;49.708;18.568;2023-12-20T09:24:41;96765.63;;;4.15;100.00
31346;BME280;21711;49.708;18.568;2023-12-20T09:27:08;96764.69;;;4.21;100.00
31346;BME280;21711;49.708;18.568;2023-12-20T09:29:36;96766.72;;;4.42;100.00
31346;BME280;21711;49.708;18.568;2023-12-20T09:32:03;96764.50;;;4.28;100.00
31346;BME280;21711;49.708;18.568;2023-12-20T09:34:31;96761.06;;;4.28;100.00
31346;BME280;21711;49.708;18.568;2023-12-20T09:36:59;96757.84;;;4.20;100.00
31346;BME280;21711;49.708;18.568;2023-12-20T09:39:26;96758.75;;;4.31;100.00
31346;BME280;21711;49.708;18.568;2023-12-20T09:42:07;96753.41;;;4.21;100.00
31346;BME280;21711;49.708;18.568;2023-12-20T09:44:34;96756.13;;;4.09;100.00
31346;BME280;21711;49.708;18.568;2023-12-20T09:47:05;96759.84;;;4.13;100.00
31346;BME280;21711;49.708;18.568;2023-12-20T09:49:34;96754.63;;;4.13;100.00
31346;BME280;21711;49.708;18.568;2023-12-20T09:52:03;96754.69;;;4.18;100.00
31346;BME280;21711;49.708;18.568;2023-12-20T09:54:32;96750.66;;;3.88;100.00
31346;BME280;21711;49.708;18.568;2023-12-20T09:56:59;96748.22;;;4.04;100.00
31346;BME280;21711;49.708;18.568;2023-12-20T09:59:27;96745.78;;;3.97;100.00
31346;BME280;21711;49.708;18.568;2023-12-20T10:01:55;96749.31;;;4.08;100.00
31346;BME280;21711;49.708;18.568;2023-12-20T10:04:26;96748.97;;;3.99;100.00
31346;BME280;21711;49.708;18.568;2023-12-20T10:06:56;96742.81;;;4.11;100.00
31346;BME280;21711;49.708;18.568;2023-12-20T10:09:25;96735.03;;;3.93;100.00
31346;BME280;21711;49.708;18.568;2023-12-20T10:11:54;96744.97;;;4.14;100.00
31346;BME280;21711;49.708;18.568;2023-12-20T10:14:23;96742.25;;;4.08;100.00
31346;BME280;21711;49.708;18.568;2023-12-20T10:16:51;96745.06;;;4.02;100.00
31346;BME280;21711;49.708;18.568;2023-12-20T10:19:20;96742.25;;;4.08;100.00
31346;BME280;21711;49.708;18.568;2023-12-20T10:21:47;96740.44;;;4.09;100.00
31346;BME280;21711;49.708;18.568;2023-12-20T10:24:18;96739.56;;;4.03;100.00
31346;BME280;21711;49.708;18.568;2023-12-20T10:26:45;96742.63;;;4.17;100.00
31346;BME280;21711;49.708;18.568;2023-12-20T10:29:13;96743.75;;;4.21;100.00
31346;BME280;21711;49.708;18.568;2023-12-20T10:31:40;96737.69;;;4.43;100.00
31346;BME280;21711;49.708;18.568;2023-12-20T10:34:10;96748.91;;;4.39;100.00
31346;BME280;21711;49.708;18.568;2023-12-20T10:36:37;96751.53;;;4.39;100.00
31346;BME280;21711;49.708;18.568;2023-12-20T10:39:08;96739.78;;;4.41;100.00
31346;BME280;21711;49.708;18.568;2023-12-20T10:41:37;96741.81;;;4.39;100.00
31346;BME280;21711;49.708;18.568;2023-12-20T10:44:09;96748.28;;;4.31;100.00
31346;BME280;21711;49.708;18.568;2023-12-20T10:46:40;96748.00;;;4.28;100.00
31346;BME280;21711;49.708;18.568;2023-12-20T10:49:08;96748.34;;;4.37;100.00
31346;BME280;21711;49.708;18.568;2023-12-20T10:51:38;96753.03;;;4.34;100.00
31346;BME280;21711;49.708;18.568;2023-12-20T10:54:06;96750.66;;;4.33;100.00
31346;BME280;21711;49.708;18.568;2023-12-20T10:56:34;96761.25;;;4.43;100.00
31346;BME280;21711;49.708;18.568;2023-12-20T10:59:03;96753.03;;;4.34;100.00
31346;BME280;21711;49.708;18.568;2023-12-20T11:01:32;96738.66;;;4.37;100.00
31346;BME280;21711;49.708;18.568;2023-12-20T11:04:01;96733.53;;;4.47;100.00
31346;BME280;21711;49.708;18.568;2023-12-20T11:09:29;96746.16;;;4.51;100.00
31346;BME280;21711;49.708;18.568;2023-12-20T11:12:20;96744.75;;;4.20;100.00
31346;BME280;21711;49.708;18.568;2023-12-20T11:14:53;96747.69;;;4.46;100.00
31346;BME280;21711;49.708;18.568;2023-12-20T11:17:23;96750.50;;;4.17;100.00
31346;BME280;21711;49.708;18.568;2023-12-20T11:22:26;96747.16;;;4.44;100.00
31346;BME280;21711;49.708;18.568;2023-12-20T11:25:06;96742.72;;;4.50;100.00
31346;BME280;21711;49.708;18.568;2023-12-20T11:27:41;96735.53;;;4.35;100.00
31346;BME280;21711;49.708;18.568;2023-12-20T11:30:15;96731.47;;;4.50;100.00
31346;BME280;21711;49.708;18.568;2023-12-20T11:32:46;96729.16;;;4.53;100.00
31346;BME280;21711;49.708;18.568;2023-12-20T11:37:41;96732.75;;;4.47;100.00
31346;BME280;21711;49.708;18.568;2023-12-20T11:40:15;96734.09;;;4.50;100.00
31346;BME280;21711;49.708;18.568;2023-12-20T11:42:51;96718.97;;;4.57;100.00
31346;BME280;21711;49.708;18.568;2023-12-20T11:45:25;96719.97;;;4.51;100.00
31346;BME280;21711;49.708;18.568;2023-12-20T11:47:57;96712.34;;;4.49;100.00
31346;BME280;21711;49.708;18.568;2023-12-20T11:50:25;96711.50;;;4.43;100.00
31346;BME280;21711;49.708;18.568;2023-12-20T11:52:54;96719.38;;;4.71;100.00
31346;BME280;21711;49.708;18.568;2023-12-20T11:55:23;96732.44;;;4.66;100.00
31346;BME280;21711;49.708;18.568;2023-12-20T11:57:53;96735.16;;;4.76;100.00
31346;BME280;21711;49.708;18.568;2023-12-20T12:00:21;96745.13;;;4.52;100.00
31346;BME280;21711;49.708;18.568;2023-12-20T12:02:57;96731.59;;;4.60;100.00
31346;BME280;21711;49.708;18.568;2023-12-20T12:05:25;96736.22;;;4.53;100.00
31346;BME280;21711;49.708;18.568;2023-12-20T12:07:53;96735.56;;;4.40;100.00
31346;BME280;21711;49.708;18.568;2023-12-20T12:10:22;96735.75;;;4.33;100.00
31346;BME280;21711;49.708;18.568;2023-12-20T12:12:50;96729.88;;;4.48;100.00
31346;BME280;21711;49.708;18.568;2023-12-20T12:15:18;96729.44;;;4.57;100.00
31346;BME280;21711;49.708;18.568;2023-12-20T12:17:56;96722.88;;;4.54;100.00
31346;BME280;21711;49.708;18.568;2023-12-20T12:20:24;96728.41;;;4.58;100.00
31346;BME280;21711;49.708;18.568;2023-12-20T12:23:03;96733.59;;;4.53;100.00
31346;BME280;21711;49.708;18.568;2023-12-20T12:25:35;96724.69;;;4.54;100.00
31346;BME280;21711;49.708;18.568;2023-12-20T12:28:07;96719.44;;;4.54;100.00
31346;BME280;21711;49.708;18.568;2023-12-20T12:30:34;96724.66;;;4.48;100.00
31346;BME280;21711;49.708;18.568;2023-12-20T12:33:12;96728.41;;;4.58;100.00
31346;BME280;21711;49.708;18.568;2023-12-20T12:35:40;96728.78;;;4.67;100.00
31346;BME280;21711;49.708;18.568;2023-12-20T12:38:08;96725.63;;;4.70;100.00
31346;BME280;21711;49.708;18.568;2023-12-20T12:40:36;96720.41;;;4.70;100.00
31346;BME280;21711;49.708;18.568;2023-12-20T12:43:03;96726.69;;;4.69;100.00
31346;BME280;21711;49.708;18.568;2023-12-20T12:45:32;96715.31;;;4.58;100.00
31346;BME280;21711;49.708;18.568;2023-12-20T12:48:00;96702.50;;;4.56;100.00
31346;BME280;21711;49.708;18.568;2023-12-20T12:50:27;96702.59;;;4.67;100.00
31346;BME280;21711;49.708;18.568;2023-12-20T12:52:56;96695.41;;;4.57;100.00
31346;BME280;21711;49.708;18.568;2023-12-20T12:55:23;96694.56;;;4.51;100.00
31346;BME280;21711;49.708;18.568;2023-12-20T12:57:51;96692.97;;;4.50;100.00
31346;BME280;21711;49.708;18.568;2023-12-20T13:00:18;96687.44;;;4.46;100.00
31346;BME280;21711;49.708;18.568;2023-12-20T13:02:46;96688.75;;;4.44;100.00
31346;BME280;21711;49.708;18.568;2023-12-20T13:05:14;96693.22;;;4.48;100.00
31346;BME280;21711;49.708;18.568;2023-12-20T13:07:41;96683.97;;;4.41;100.00